Time;durP1;ratioP1;P1;durP2;ratioP2;P2;SDS_P1;SDS_P2;PMS_P1;PMS_P2;Temp;Humidity;BMP_temperature;BMP_pressure;BME280_temperature;BME280_humidity;BME280_pressure;Samples;Min_cycle;Max_cycle;Signal;HPM_P1;HPM_P2
2022/02/01 00:05:16;;;;;;;53.5;76.8;;;;;;;0.6;78.5;97780;;;;
2022/02/01 00:15:29;;;;;;;59.9;73.6;;;;;;;0.6;79;97790;;;;
2022/02/01 00:36:22;;;;;;;59.9;73.6;;;;;;;0.7;79.6;97790;;;;
2022/02/01 00:46:10;;;;;;;64.4;78.3;;;;;;;0.5;79.5;97800;;;;
2022/02/01 00:56:10;;;;;;;64.4;78.3;;;;;;;0.5;80.2;97800;;;;
2022/02/01 01:06:10;;;;;;;64.4;78.3;;;;;;;0.4;80.6;97800;;;;
2022/02/01 01:16:22;;;;;;;64.1;83.8;;;;;;;0.4;80.8;97800;;;;
2022/02/01 01:58:10;;;;;;;71;88.5;;;;;;;0.7;81.4;97830;;;;
2022/02/01 02:08:11;;;;;;;;;;;;;;;0.6;81.6;97850;;;;
2022/02/01 02:18:10;;;;;;;79;96.5;;;;;;;0.7;81.5;97850;;;;
2022/02/01 02:28:13;;;;;;;79;96.5;;;;;;;0.7;81.6;97850;;;;
2022/02/01 02:38:15;;;;;;;86.3;106.6;;;;;;;0.7;81.4;97870;;;;
2022/02/01 02:49:10;;;;;;;86.3;106.6;;;;;;;0.7;81.3;97880;;;;
2022/02/01 02:59:10;;;;;;;86.3;106.6;;;;;;;0.7;81.2;97900;;;;
2022/02/01 03:10:10;;;;;;;83.6;102.6;;;;;;;0.7;81.3;97920;;;;
2022/02/01 03:20:10;;;;;;;83.6;102.6;;;;;;;0.7;81.2;97930;;;;
2022/02/01 03:31:10;;;;;;;83.6;102.6;;;;;;;0.5;81.4;97940;;;;
2022/02/01 03:41:10;;;;;;;82.4;103.6;;;;;;;0.6;81;97950;;;;
2022/02/01 03:52:10;;;;;;;82.4;103.6;;;;;;;0.6;80.7;97950;;;;
2022/02/01 04:03:10;;;;;;;82.4;103.6;;;;;;;0.6;80.6;97940;;;;
2022/02/01 04:13:10;;;;;;;80.8;99;;;;;;;0.6;80.5;97950;;;;
2022/02/01 04:23:10;;;;;;;80.8;99;;;;;;;0.7;80.3;97940;;;;
2022/02/01 04:34:10;;;;;;;80.8;99;;;;;;;0.6;80.1;97950;;;;
2022/02/01 04:44:10;;;;;;;77;97.7;;;;;;;0.5;80.2;97970;;;;
2022/02/01 04:54:11;;;;;;;77;97.7;;;;;;;0.3;80.6;97980;;;;
2022/02/01 05:04:12;;;;;;;77;97.7;;;;;;;0.4;80.7;98000;;;;
2022/02/01 05:15:10;;;;;;;67;89.1;;;;;;;0.2;81.5;98010;;;;
2022/02/01 05:26:10;;;;;;;67;89.1;;;;;;;0.3;81.3;98030;;;;
2022/02/01 05:36:10;;;;;;;67;89.1;;;;;;;0.4;81.2;98030;;;;
2022/02/01 05:46:10;;;;;;;65.2;92.8;;;;;;;0.4;81.2;98050;;;;
2022/02/01 05:56:10;;;;;;;65.2;92.8;;;;;;;0.3;81.4;98050;;;;
2022/02/01 06:07:10;;;;;;;65.2;92.8;;;;;;;0.2;81.2;98050;;;;
2022/02/01 06:18:10;;;;;;;59.9;74.9;;;;;;;0.2;81.1;98070;;;;
2022/02/01 06:29:10;;;;;;;59.9;74.9;;;;;;;0.2;81.2;98100;;;;
2022/02/01 06:40:10;;;;;;;62;85.3;;;;;;;0.3;81.5;98120;;;;
2022/02/01 06:50:12;;;;;;;62;85.3;;;;;;;0.3;81.4;98130;;;;
2022/02/01 07:01:10;;;;;;;62;85.3;;;;;;;0.4;81.1;98130;;;;
2022/02/01 07:12:10;;;;;;;60.3;79.9;;;;;;;0.5;80.4;98140;;;;
2022/02/01 07:23:11;;;;;;;60.3;79.9;;;;;;;0.7;79.5;98150;;;;
2022/02/01 07:34:11;;;;;;;60.3;79.9;;;;;;;0.8;79.2;98160;;;;
2022/02/01 07:44:10;;;;;;;58.6;73.8;;;;;;;0.8;78.9;98170;;;;
2022/02/01 07:55:10;;;;;;;58.6;73.8;;;;;;;0.9;78.6;98180;;;;
2022/02/01 08:06:12;;;;;;;58.6;73.8;;;;;;;0.9;77.3;98180;;;;
2022/02/01 08:17:22;;;;;;;42.8;56.2;;;;;;;1;76.5;98180;;;;
2022/02/01 08:26:10;;;;;;;42.8;56.2;;;;;;;1.1;76.1;98190;;;;
2022/02/01 08:36:10;;;;;;;42.8;56.2;;;;;;;1.3;75.8;98190;;;;
2022/02/01 08:46:10;;;;;;;34.1;44.5;;;;;;;1.7;74.9;98180;;;;
2022/02/01 08:57:20;;;;;;;34.1;44.5;;;;;;;1.5;74.6;98170;;;;
2022/02/01 09:06:10;;;;;;;34.1;44.5;;;;;;;1.6;74.2;98180;;;;
2022/02/01 09:17:12;;;;;;;31.4;39.1;;;;;;;1.7;73.9;98180;;;;
2022/02/01 09:27:10;;;;;;;31.4;39.1;;;;;;;1.6;73;98180;;;;
2022/02/01 09:37:10;;;;;;;29.7;44.8;;;;;;;1.7;72.8;98190;;;;
2022/02/01 09:47:10;;;;;;;29.7;44.8;;;;;;;2.4;72.3;98210;;;;
2022/02/01 09:58:12;;;;;;;29.7;44.8;;;;;;;2.2;71.3;98180;;;;
2022/02/01 10:08:11;;;;;;;25.7;31.6;;;;;;;2.3;70;98170;;;;
2022/02/01 10:18:10;;;;;;;25.7;31.6;;;;;;;2.9;68.7;98180;;;;
2022/02/01 10:29:19;;;;;;;25.7;31.6;;;;;;;2.7;65.2;98190;;;;
2022/02/01 10:39:11;;;;;;;23.4;35.8;;;;;;;2.3;63.6;98180;;;;
2022/02/01 10:50:10;;;;;;;23.4;35.8;;;;;;;2.6;63.1;98170;;;;
2022/02/01 11:01:10;;;;;;;23.4;35.8;;;;;;;2.6;62.7;98150;;;;
2022/02/01 11:12:10;;;;;;;16.5;22.3;;;;;;;2.6;63.8;98150;;;;
2022/02/01 11:22:10;;;;;;;16.5;22.3;;;;;;;2.5;62.9;98140;;;;
2022/02/01 11:32:10;;;;;;;16.5;22.3;;;;;;;2.6;62.3;98140;;;;
2022/02/01 11:42:10;;;;;;;15.9;23.6;;;;;;;2.4;63.4;98120;;;;
2022/02/01 11:53:10;;;;;;;15.9;23.6;;;;;;;2.5;65.2;98120;;;;
2022/02/01 12:03:16;;;;;;;15.9;23.6;;;;;;;2;66.5;98110;;;;
2022/02/01 12:13:11;;;;;;;18.7;24.5;;;;;;;2.2;67.3;98110;;;;
2022/02/01 12:24:10;;;;;;;18.7;24.5;;;;;;;2;68;98100;;;;
2022/02/01 12:34:12;;;;;;;18.7;24.5;;;;;;;2;68.5;98080;;;;
2022/02/01 12:54:10;;;;;;;16.2;21.2;;;;;;;1.9;69.2;98060;;;;
2022/02/01 13:05:12;;;;;;;16.2;21.2;;;;;;;1.9;69;98050;;;;
2022/02/01 13:16:23;;;;;;;17.2;26.8;;;;;;;2.2;69;98030;;;;
2022/02/01 13:26:10;;;;;;;17.2;26.8;;;;;;;2.3;69;98020;;;;
2022/02/01 13:36:10;;;;;;;17.1;22;;;;;;;2.5;68.8;98000;;;;
2022/02/01 13:46:44;;;;;;;17.1;22;;;;;;;2.6;68;97970;;;;
2022/02/01 13:57:39;;;;;;;17.1;22;;;;;;;2.6;67.3;97950;;;;
2022/02/01 14:07:52;;;;;;;15.4;20.8;;;;;;;2.6;67;97930;;;;
2022/02/01 14:27:51;;;;;;;15.4;20.8;;;;;;;2.9;65.7;97900;;;;
2022/02/01 14:37:44;;;;;;;9.9;15;;;;;;;2.9;64.4;97880;;;;
2022/02/01 14:48:38;;;;;;;9.9;15;;;;;;;2.8;64.8;97870;;;;
2022/02/01 15:20:38;;;;;;;12.6;20;;;;;;;2.5;66.1;97860;;;;
2022/02/01 15:30:38;;;;;;;12.6;20;;;;;;;2.4;67.8;97860;;;;
2022/02/01 16:00:39;;;;;;;12;17.1;;;;;;;1.8;73;97850;;;;
2022/02/01 16:10:49;;;;;;;14;20;;;;;;;1.6;73.4;97830;;;;
2022/02/01 16:20:38;;;;;;;14;20;;;;;;;1.5;73.2;97830;;;;
2022/02/01 16:31:40;;;;;;;14;20;;;;;;;1.4;72.4;97790;;;;
2022/02/01 16:41:39;;;;;;;15.6;19.7;;;;;;;1.3;72;97770;;;;
2022/02/01 16:51:39;;;;;;;15.6;19.7;;;;;;;1.2;71.7;97750;;;;
2022/02/01 17:02:38;;;;;;;15.6;19.7;;;;;;;1;71.7;97730;;;;
2022/02/01 17:12:44;;;;;;;16.9;23.6;;;;;;;0.9;71.5;97700;;;;
2022/02/01 17:23:39;;;;;;;16.9;23.6;;;;;;;0.8;72.3;97690;;;;
2022/02/01 17:33:38;;;;;;;16.9;23.6;;;;;;;0.9;72.8;97680;;;;
2022/02/01 17:44:39;;;;;;;15.3;21.3;;;;;;;1;72.4;97660;;;;
2022/02/01 17:55:38;;;;;;;15.3;21.3;;;;;;;1;72.6;97640;;;;
2022/02/01 18:05:38;;;;;;;15.4;21.7;;;;;;;1.1;72;97610;;;;
2022/02/01 18:16:38;;;;;;;15.4;21.7;;;;;;;1.1;71.4;97590;;;;
2022/02/01 18:26:38;;;;;;;15.4;21.7;;;;;;;1;71.3;97560;;;;
2022/02/01 18:37:39;;;;;;;12.2;14.9;;;;;;;1.1;71.1;97550;;;;
2022/02/01 18:47:39;;;;;;;12.2;14.9;;;;;;;1.3;70.4;97520;;;;
2022/02/01 18:58:41;;;;;;;12.2;14.9;;;;;;;1.5;70.2;97500;;;;
2022/02/01 19:09:07;;;;;;;9.3;12.4;;;;;;;1.6;70;97460;;;;
2022/02/01 19:18:39;;;;;;;9.3;12.4;;;;;;;1.6;70;97450;;;;
2022/02/01 19:28:38;;;;;;;9.3;12.4;;;;;;;1.7;70.2;97420;;;;
2022/02/01 19:38:39;;;;;;;8.7;12.4;;;;;;;1.6;70.4;97380;;;;
2022/02/01 19:49:38;;;;;;;8.7;12.4;;;;;;;1.8;68.4;97350;;;;
2022/02/01 19:59:38;;;;;;;8.7;12.4;;;;;;;2;67.5;97340;;;;
2022/02/01 20:09:44;;;;;;;5.7;8;;;;;;;2.1;67.4;97300;;;;
2022/02/01 20:20:39;;;;;;;5.7;8;;;;;;;2.1;67.4;97270;;;;
2022/02/01 20:30:39;;;;;;;5.7;8;;;;;;;2.1;68.1;97230;;;;
2022/02/01 20:40:43;;;;;;;4.2;7.1;;;;;;;2.2;67.9;97200;;;;
2022/02/01 20:50:39;;;;;;;4.2;7.1;;;;;;;2.1;69.8;97210;;;;
2022/02/01 21:01:39;;;;;;;4.2;7.1;;;;;;;1.8;73.9;97200;;;;
2022/02/01 21:12:39;;;;;;;4.1;6.5;;;;;;;1.5;76.8;97180;;;;
2022/02/01 21:22:39;;;;;;;4.1;6.5;;;;;;;1.3;78.7;97160;;;;
2022/02/01 21:33:39;;;;;;;4.1;6.5;;;;;;;1.1;80.8;97140;;;;
2022/02/01 21:44:39;;;;;;;3.5;5.5;;;;;;;1;81.6;97130;;;;
2022/02/01 21:54:39;;;;;;;3.5;5.5;;;;;;;1;82;97120;;;;
2022/02/01 22:05:39;;;;;;;3.7;9.1;;;;;;;1;83.1;97100;;;;
2022/02/01 22:15:39;;;;;;;3.7;9.1;;;;;;;1;83.6;97100;;;;
2022/02/01 22:25:40;;;;;;;3.7;9.1;;;;;;;0.9;84.3;97080;;;;
2022/02/01 22:35:41;;;;;;;3.4;5.9;;;;;;;0.8;84.6;97070;;;;
2022/02/01 22:46:39;;;;;;;3.4;5.9;;;;;;;0.9;84.7;97050;;;;
2022/02/01 22:57:39;;;;;;;3.4;5.9;;;;;;;0.9;84.2;97020;;;;
2022/02/01 23:08:54;;;;;;;2.8;5.9;;;;;;;1.1;83.2;97010;;;;
2022/02/01 23:18:39;;;;;;;2.8;5.9;;;;;;;1.1;82.7;97000;;;;
2022/02/01 23:28:39;;;;;;;2.8;5.9;;;;;;;1.2;82.4;96990;;;;
2022/02/01 23:40:01;;;;;;;2;4.7;;;;;;;1.3;82;96990;;;;
2022/02/01 23:49:39;;;;;;;2;4.7;;;;;;;1.3;81.8;96980;;;;
